Time;durP1;ratioP1;P1;durP2;ratioP2;P2;SDS_P1;SDS_P2;PMS_P1;PMS_P2;Temp;Humidity;BMP_temperature;BMP_pressure;BME280_temperature;BME280_humidity;BME280_pressure;Samples;Min_cycle;Max_cycle;Signal;HPM_P1;HPM_P2
2023/12/21 00:01:34;;;;;;;4.85;2.13;;;19.00;58.90;;;;;;5092338;28;20126;-63
2023/12/21 00:04:00;;;;;;;3.75;2.00;;;19.00;59.20;;;;;;5091869;28;20074;-64
2023/12/21 00:06:26;;;;;;;3.60;1.85;;;19.10;59.40;;;;;;5092054;28;20089;-63
2023/12/21 00:08:52;;;;;;;3.67;1.80;;;19.00;59.20;;;;;;5092186;28;20058;-64
2023/12/21 00:11:17;;;;;;;4.68;2.10;;;19.00;59.20;;;;;;5092243;28;20052;-63
2023/12/21 00:13:44;;;;;;;5.28;1.98;;;19.00;59.40;;;;;;5092295;28;20020;-63
2023/12/21 00:16:10;;;;;;;3.45;2.13;;;19.00;59.20;;;;;;5092068;28;20050;-63
2023/12/21 00:18:36;;;;;;;5.53;1.92;;;19.00;59.30;;;;;;5091915;28;20026;-63
2023/12/21 00:21:02;;;;;;;5.43;1.98;;;19.00;59.20;;;;;;5091999;28;20024;-64
2023/12/21 00:23:27;;;;;;;5.18;1.80;;;19.00;58.70;;;;;;5091652;28;20024;-63
2023/12/21 00:25:53;;;;;;;5.75;2.00;;;19.00;58.80;;;;;;5091691;28;20021;-63
2023/12/21 00:28:19;;;;;;;4.72;1.65;;;19.00;59.10;;;;;;5091873;28;20051;-63
2023/12/21 00:30:45;;;;;;;3.53;1.63;;;19.10;58.80;;;;;;5091837;28;20031;-64
2023/12/21 00:33:11;;;;;;;3.53;1.60;;;19.00;58.80;;;;;;5091256;28;20055;-64
2023/12/21 00:35:36;;;;;;;5.18;2.03;;;19.10;59.40;;;;;;5092119;28;20111;-63
2023/12/21 00:38:03;;;;;;;2.85;1.75;;;19.10;58.60;;;;;;5091837;28;20107;-63
2023/12/21 00:40:29;;;;;;;4.07;1.77;;;19.00;59.00;;;;;;5091808;28;20021;-63
2023/12/21 00:42:55;;;;;;;3.83;1.88;;;19.00;59.10;;;;;;5091585;28;20081;-63
2023/12/21 00:45:21;;;;;;;3.67;1.77;;;19.00;59.10;;;;;;5091632;28;20071;-63
2023/12/21 00:47:48;;;;;;;5.30;1.80;;;19.00;59.40;;;;;;5091566;28;20062;-63
2023/12/21 00:50:15;;;;;;;5.38;1.80;;;19.00;59.10;;;;;;5091844;28;20375;-63
2023/12/21 00:52:41;;;;;;;3.17;1.77;;;19.00;59.20;;;;;;5091373;28;20035;-64
2023/12/21 00:55:07;;;;;;;3.53;1.50;;;19.00;58.80;;;;;;5091687;28;20399;-64
2023/12/21 00:57:33;;;;;;;5.88;1.85;;;19.00;58.80;;;;;;5091644;28;20056;-63
2023/12/21 00:59:59;;;;;;;3.85;2.00;;;19.00;58.50;;;;;;5091562;28;20017;-63
2023/12/21 01:02:25;;;;;;;3.60;1.70;;;19.00;58.60;;;;;;5091165;28;20031;-63
2023/12/21 01:04:50;;;;;;;3.10;1.83;;;19.00;58.90;;;;;;5091433;28;20028;-64
2023/12/21 01:07:16;;;;;;;3.15;1.80;;;19.00;58.90;;;;;;5091436;28;20035;-64
2023/12/21 01:09:42;;;;;;;3.92;1.85;;;19.00;58.70;;;;;;5091427;28;20028;-63
2023/12/21 01:12:08;;;;;;;3.10;1.60;;;19.00;58.70;;;;;;5073001;28;20130;-63
2023/12/21 01:14:34;;;;;;;3.28;1.65;;;19.00;59.00;;;;;;5091489;28;20090;-64
2023/12/21 01:17:00;;;;;;;4.53;1.77;;;19.00;58.70;;;;;;5091234;28;20020;-63
2023/12/21 01:19:26;;;;;;;1.75;1.30;;;19.00;58.30;;;;;;5091360;28;20028;-64
2023/12/21 01:21:52;;;;;;;2.92;1.40;;;19.00;58.30;;;;;;5091022;28;20058;-64
2023/12/21 01:24:18;;;;;;;2.63;1.60;;;19.00;58.50;;;;;;5091281;28;20417;-63
2023/12/21 01:26:44;;;;;;;3.30;1.60;;;19.00;58.20;;;;;;5091217;28;20105;-63
2023/12/21 01:29:10;;;;;;;4.97;1.60;;;19.00;58.50;;;;;;5091201;28;20020;-63
2023/12/21 01:31:36;;;;;;;5.78;1.83;;;19.00;58.50;;;;;;5090914;28;20056;-63
2023/12/21 01:34:05;;;;;;;2.78;1.80;;;19.00;58.50;;;;;;5091014;28;20450;-63
2023/12/21 01:36:31;;;;;;;2.45;1.65;;;19.00;58.50;;;;;;5091282;28;20089;-63
2023/12/21 01:38:57;;;;;;;4.50;1.70;;;19.00;58.40;;;;;;5093075;28;20410;-63
2023/12/21 01:41:24;;;;;;;8.32;1.58;;;19.00;58.30;;;;;;5094925;28;20028;-63
2023/12/21 01:43:50;;;;;;;5.68;1.60;;;18.90;56.20;;;;;;5094692;28;20039;-63
2023/12/21 01:46:16;;;;;;;11.43;1.50;;;18.80;55.20;;;;;;5094749;28;20119;-64
2023/12/21 01:48:42;;;;;;;3.00;1.40;;;18.80;55.70;;;;;;5094846;28;20032;-63
2023/12/21 01:51:11;;;;;;;3.25;1.40;;;18.80;56.40;;;;;;5094793;28;20481;-63
2023/12/21 01:53:39;;;;;;;3.90;1.55;;;18.80;56.50;;;;;;5094500;28;20032;-64
2023/12/21 01:56:05;;;;;;;6.07;1.63;;;18.80;56.90;;;;;;5094786;28;20032;-63
2023/12/21 01:58:32;;;;;;;7.95;1.55;;;18.80;57.20;;;;;;5094779;28;20505;-63
2023/12/21 02:00:58;;;;;;;3.50;1.55;;;18.80;57.30;;;;;;5094632;28;20107;-63
2023/12/21 02:03:27;;;;;;;1.77;1.40;;;18.80;57.50;;;;;;5094363;28;20107;-63
2023/12/21 02:05:53;;;;;;;3.70;1.38;;;18.80;57.60;;;;;;5094398;28;20116;-64
2023/12/21 02:08:19;;;;;;;4.15;1.52;;;18.80;57.70;;;;;;5094483;28;20502;-63
2023/12/21 02:10:46;;;;;;;6.57;1.58;;;18.80;57.60;;;;;;5094527;28;20111;-63
2023/12/21 02:13:12;;;;;;;2.78;1.52;;;18.80;58.10;;;;;;5094298;28;20390;-64
2023/12/21 02:15:38;;;;;;;5.07;1.55;;;18.80;57.60;;;;;;5094324;28;20020;-64
2023/12/21 02:18:07;;;;;;;5.40;1.30;;;18.90;58.00;;;;;;5094361;28;20035;-63
2023/12/21 02:20:34;;;;;;;5.93;1.47;;;18.90;58.30;;;;;;5076213;28;20035;-63
2023/12/21 02:23:03;;;;;;;2.25;1.30;;;18.90;58.10;;;;;;5093840;28;20285;-63
2023/12/21 02:25:30;;;;;;;7.50;1.63;;;18.90;57.90;;;;;;5094078;28;20028;-63
2023/12/21 02:27:56;;;;;;;3.42;1.25;;;18.90;58.10;;;;;;5094252;28;20052;-63
2023/12/21 02:30:22;;;;;;;4.85;1.52;;;18.90;58.40;;;;;;5094191;28;20028;-63
2023/12/21 02:32:48;;;;;;;3.25;1.42;;;18.90;58.40;;;;;;5093440;28;20028;-63
2023/12/21 02:35:15;;;;;;;6.50;1.30;;;18.90;58.40;;;;;;5093917;28;20028;-63
2023/12/21 02:37:41;;;;;;;8.93;1.65;;;18.90;58.30;;;;;;5094073;28;20089;-63
2023/12/21 02:40:07;;;;;;;3.00;1.25;;;18.90;58.80;;;;;;5093951;28;20020;-63
2023/12/21 02:42:32;;;;;;;3.83;1.40;;;18.90;58.80;;;;;;5093594;28;20495;-63
2023/12/21 02:44:58;;;;;;;2.83;1.30;;;18.90;58.60;;;;;;5093697;28;20035;-64
2023/12/21 02:47:24;;;;;;;2.63;1.73;;;18.90;58.80;;;;;;5093744;28;20123;-63
2023/12/21 02:49:50;;;;;;;3.35;1.20;;;18.90;58.70;;;;;;5093678;28;20057;-64
2023/12/21 02:52:15;;;;;;;3.28;1.35;;;18.90;58.80;;;;;;5093400;28;20375;-64
2023/12/21 02:54:41;;;;;;;11.32;1.50;;;18.90;58.30;;;;;;5093580;28;20398;-63
2023/12/21 02:57:07;;;;;;;5.25;1.55;;;18.90;58.80;;;;;;5093543;28;20040;-63
2023/12/21 02:59:33;;;;;;;6.03;1.20;;;18.90;58.90;;;;;;5093585;28;20028;-63
2023/12/21 03:01:58;;;;;;;4.22;1.40;;;18.90;58.90;;;;;;5093188;28;20028;-63
2023/12/21 03:04:24;;;;;;;2.00;1.20;;;18.90;59.10;;;;;;5093462;28;20670;-63
2023/12/21 03:06:50;;;;;;;1.75;1.25;;;18.90;58.10;;;;;;5101441;22;20041;-61
2023/12/21 03:09:16;;;;;;;1.98;1.20;;;18.90;59.00;;;;;;5073041;28;20024;-61
2023/12/21 03:11:41;;;;;;;3.08;1.30;;;18.90;58.40;;;;;;5055176;28;20059;-61
2023/12/21 03:14:07;;;;;;;5.07;1.35;;;18.90;58.50;;;;;;5072638;28;20051;-60
2023/12/21 03:16:33;;;;;;;6.72;1.23;;;18.90;58.90;;;;;;5072835;28;20021;-60
2023/12/21 03:18:59;;;;;;;1.85;1.13;;;18.80;59.30;;;;;;5073048;28;20020;-60
2023/12/21 03:21:25;;;;;;;2.35;1.23;;;18.80;58.70;;;;;;5072883;28;20031;-58
2023/12/21 03:23:51;;;;;;;2.70;1.30;;;18.80;58.70;;;;;;5072514;28;20522;-61
2023/12/21 03:26:17;;;;;;;5.85;1.42;;;18.90;58.90;;;;;;5072602;28;20032;-60
2023/12/21 03:28:45;;;;;;;3.10;1.30;;;18.80;58.90;;;;;;5054857;28;20075;-60
2023/12/21 03:31:11;;;;;;;2.42;1.13;;;18.90;58.90;;;;;;5072371;28;20402;-56
2023/12/21 03:33:37;;;;;;;1.65;1.33;;;18.80;59.10;;;;;;5072269;28;20075;-60
2023/12/21 03:36:03;;;;;;;3.20;1.23;;;18.80;58.60;;;;;;5072399;28;20028;-61
2023/12/21 03:38:29;;;;;;;1.80;1.10;;;18.90;58.90;;;;;;5072435;28;20021;-61
2023/12/21 03:40:55;;;;;;;1.60;1.30;;;18.80;58.70;;;;;;5072490;28;20031;-58
2023/12/21 03:43:21;;;;;;;1.95;1.15;;;18.80;59.10;;;;;;5071987;28;20514;-60
2023/12/21 03:45:46;;;;;;;2.17;1.10;;;18.90;59.00;;;;;;5072299;28;20496;-60
2023/12/21 03:48:12;;;;;;;1.38;1.20;;;18.80;59.00;;;;;;5072276;28;20034;-61
2023/12/21 03:50:38;;;;;;;2.97;1.30;;;18.90;59.00;;;;;;5072404;28;20404;-61
2023/12/21 03:53:06;;;;;;;1.25;1.10;;;18.90;59.30;;;;;;5071886;28;20028;-61
2023/12/21 03:55:32;;;;;;;6.13;1.30;;;18.80;58.70;;;;;;5072105;28;20025;-61
2023/12/21 03:57:58;;;;;;;1.10;1.00;;;18.80;59.50;;;;;;5071992;28;20033;-61
2023/12/21 04:00:24;;;;;;;1.55;1.27;;;18.80;59.00;;;;;;5072060;28;20058;-59
2023/12/21 04:02:50;;;;;;;4.78;1.27;;;18.80;59.20;;;;;;5053631;28;20111;-59
2023/12/21 04:05:16;;;;;;;2.40;1.20;;;18.80;59.40;;;;;;5071781;28;20059;-59
2023/12/21 04:07:41;;;;;;;2.15;1.08;;;18.80;59.60;;;;;;5071910;28;20041;-58
2023/12/21 04:10:07;;;;;;;2.30;1.10;;;18.90;59.10;;;;;;5071890;28;20082;-59
2023/12/21 04:12:33;;;;;;;2.97;1.20;;;18.80;59.00;;;;;;5071365;28;20029;-59
2023/12/21 04:14:59;;;;;;;2.65;1.25;;;18.80;59.40;;;;;;5071821;28;20031;-59
2023/12/21 04:17:25;;;;;;;1.45;1.00;;;18.80;59.20;;;;;;5071748;28;20388;-59
2023/12/21 04:19:51;;;;;;;1.83;1.30;;;18.80;59.20;;;;;;5071863;28;20490;-59
2023/12/21 04:22:17;;;;;;;1.83;1.10;;;18.80;59.20;;;;;;5071607;28;20029;-60
2023/12/21 04:24:44;;;;;;;2.45;1.05;;;18.80;59.50;;;;;;5071751;28;20097;-59
2023/12/21 04:27:10;;;;;;;1.80;1.08;;;18.80;60.20;;;;;;5071581;28;20052;-59
2023/12/21 04:29:39;;;;;;;1.25;1.10;;;18.80;59.50;;;;;;5071704;28;20060;-59
2023/12/21 04:32:06;;;;;;;1.90;1.02;;;18.80;59.20;;;;;;5071288;28;20033;-59
2023/12/21 04:34:32;;;;;;;2.13;1.30;;;18.80;59.50;;;;;;5071597;28;20021;-59
2023/12/21 04:36:58;;;;;;;3.92;1.23;;;18.80;60.10;;;;;;5071522;28;20024;-59
2023/12/21 04:39:24;;;;;;;1.88;1.00;;;18.80;60.40;;;;;;5071962;28;20028;-59
2023/12/21 04:41:50;;;;;;;4.88;1.52;;;18.80;59.90;;;;;;5071281;28;20519;-56
2023/12/21 04:44:16;;;;;;;2.28;1.20;;;18.80;60.20;;;;;;5071478;28;20031;-59
2023/12/21 04:46:42;;;;;;;3.95;1.30;;;18.80;59.90;;;;;;5071342;28;20029;-59
2023/12/21 04:49:07;;;;;;;0.90;0.90;;;18.90;59.80;;;;;;5071452;28;20112;-58
2023/12/21 04:51:34;;;;;;;2.38;1.33;;;18.90;59.90;;;;;;5071316;28;20484;-59
2023/12/21 04:53:59;;;;;;;1.40;1.27;;;18.90;59.30;;;;;;5071093;28;20044;-59
2023/12/21 04:56:25;;;;;;;7.10;1.48;;;18.90;59.40;;;;;;5071207;28;20032;-58
2023/12/21 04:58:51;;;;;;;1.90;1.30;;;18.90;59.40;;;;;;5071508;28;20055;-59
2023/12/21 05:01:18;;;;;;;4.57;1.40;;;18.90;59.50;;;;;;5071425;28;20424;-58
2023/12/21 05:03:44;;;;;;;3.60;1.30;;;18.90;59.10;;;;;;5071142;28;20021;-54
2023/12/21 05:06:10;;;;;;;2.95;1.50;;;18.90;59.30;;;;;;5071154;28;20036;-58
2023/12/21 05:08:35;;;;;;;2.65;1.42;;;18.90;59.50;;;;;;5071633;28;20432;-59
2023/12/21 05:11:02;;;;;;;1.70;1.20;;;18.90;59.10;;;;;;5071219;28;20411;-59
2023/12/21 05:13:28;;;;;;;3.05;1.40;;;18.90;58.80;;;;;;5072060;28;20060;-59
2023/12/21 05:15:53;;;;;;;2.15;1.27;;;18.90;58.80;;;;;;5075211;28;20121;-59
2023/12/21 05:18:19;;;;;;;3.55;1.45;;;18.90;58.90;;;;;;5075260;28;20031;-59
2023/12/21 05:20:45;;;;;;;2.42;1.20;;;18.90;58.80;;;;;;5075191;28;20054;-59
2023/12/21 05:23:11;;;;;;;2.65;1.40;;;18.90;58.80;;;;;;5074922;28;20029;-59
2023/12/21 05:25:36;;;;;;;4.10;1.70;;;19.00;58.80;;;;;;5074893;28;20079;-59
2023/12/21 05:28:02;;;;;;;4.70;1.40;;;19.00;58.80;;;;;;5075111;28;20031;-59
2023/12/21 05:30:28;;;;;;;2.00;1.40;;;18.90;58.80;;;;;;5074968;28;20134;-59
2023/12/21 05:32:54;;;;;;;4.68;1.42;;;18.90;58.80;;;;;;5056651;28;20038;-59
2023/12/21 05:35:20;;;;;;;3.38;1.40;;;18.90;58.80;;;;;;5074818;28;20395;-59
2023/12/21 05:37:45;;;;;;;2.55;1.40;;;19.00;58.90;;;;;;5075245;28;20075;-59
2023/12/21 05:40:12;;;;;;;4.55;1.40;;;19.00;58.80;;;;;;5074587;28;20108;-58
2023/12/21 05:42:38;;;;;;;3.38;1.58;;;18.90;58.80;;;;;;5074597;28;20028;-58
2023/12/21 05:45:04;;;;;;;2.72;1.40;;;19.00;59.10;;;;;;5074666;28;20484;-59
2023/12/21 05:47:31;;;;;;;3.60;1.73;;;18.90;58.80;;;;;;5074603;28;20415;-59
2023/12/21 05:49:58;;;;;;;2.78;1.58;;;19.00;58.90;;;;;;5074634;28;20050;-59
2023/12/21 05:52:24;;;;;;;2.90;1.50;;;19.00;59.60;;;;;;5074144;28;20479;-59
2023/12/21 05:54:49;;;;;;;2.28;1.42;;;19.00;59.00;;;;;;5074384;28;20047;-59
2023/12/21 05:57:16;;;;;;;2.17;1.20;;;19.00;59.00;;;;;;5074291;28;20016;-59
2023/12/21 05:59:42;;;;;;;2.53;1.60;;;19.00;59.20;;;;;;5074510;28;20024;-59
2023/12/21 06:02:09;;;;;;;2.72;1.40;;;19.00;59.10;;;;;;5056265;28;20043;-56
2023/12/21 06:04:35;;;;;;;2.35;1.63;;;18.90;59.30;;;;;;5074341;28;20025;-59
2023/12/21 06:07:01;;;;;;;3.13;1.67;;;19.00;59.00;;;;;;5074028;28;20162;-59
2023/12/21 06:09:27;;;;;;;4.97;1.60;;;19.00;59.10;;;;;;5074188;28;20488;-59
2023/12/21 06:11:53;;;;;;;4.43;1.98;;;18.90;59.30;;;;;;5073788;28;20487;-59
2023/12/21 06:14:18;;;;;;;2.55;1.55;;;19.00;59.10;;;;;;5074172;28;20024;-59
2023/12/21 06:16:44;;;;;;;2.55;1.60;;;19.00;59.20;;;;;;5074011;28;20495;-59
2023/12/21 06:19:10;;;;;;;2.58;1.52;;;19.00;59.40;;;;;;5074033;28;20043;-59
2023/12/21 06:21:39;;;;;;;2.28;1.55;;;18.90;59.10;;;;;;5074062;28;20044;-59
2023/12/21 06:24:06;;;;;;;3.20;1.85;;;19.00;59.50;;;;;;5073106;28;20061;-59
2023/12/21 06:26:32;;;;;;;3.45;1.83;;;19.00;59.30;;;;;;5073886;28;20035;-59
2023/12/21 06:28:58;;;;;;;4.53;1.80;;;19.00;59.40;;;;;;5056135;28;20059;-59
2023/12/21 06:31:24;;;;;;;4.07;2.10;;;19.00;59.30;;;;;;5073676;28;20048;-59
2023/12/21 06:33:52;;;;;;;4.95;1.80;;;19.00;59.30;;;;;;5055664;28;20513;-59
2023/12/21 06:36:18;;;;;;;3.53;1.75;;;19.00;59.40;;;;;;5073860;28;20426;-60
2023/12/21 06:38:44;;;;;;;5.53;1.95;;;19.00;59.20;;;;;;5039300;28;20039;-60
2023/12/21 06:41:14;;;;;;;3.70;1.67;;;19.00;59.20;;;;;;5073634;28;20025;-60
2023/12/21 06:43:40;;;;;;;4.47;1.67;;;19.00;59.30;;;;;;5055753;28;20527;-60
2023/12/21 06:46:16;;;;;;;2.78;1.75;;;19.00;59.40;;;;;;5055727;28;20024;-60
2023/12/21 06:48:42;;;;;;;2.65;1.88;;;19.00;59.30;;;;;;5073491;28;20059;-61
2023/12/21 06:51:08;;;;;;;4.18;1.75;;;19.00;59.50;;;;;;5073509;28;20028;-60
2023/12/21 06:53:34;;;;;;;2.92;1.67;;;19.00;59.70;;;;;;5072970;28;20028;-60
2023/12/21 06:56:00;;;;;;;3.20;1.70;;;19.00;60.10;;;;;;5073319;28;20074;-60
2023/12/21 06:58:27;;;;;;;5.30;2.00;;;19.00;59.70;;;;;;5073285;28;20040;-60
2023/12/21 07:00:53;;;;;;;4.03;2.20;;;19.00;60.40;;;;;;5055100;28;20074;-60
2023/12/21 07:03:19;;;;;;;4.75;2.42;;;19.00;59.80;;;;;;5072856;28;20029;-59
2023/12/21 07:05:45;;;;;;;3.45;1.90;;;19.00;59.80;;;;;;5073078;28;20028;-60
2023/12/21 07:08:11;;;;;;;5.32;1.80;;;19.00;59.50;;;;;;5038907;28;20032;-60
2023/12/21 07:10:37;;;;;;;2.28;1.73;;;19.00;60.00;;;;;;5073073;28;20527;-58
2023/12/21 07:13:03;;;;;;;3.20;2.00;;;19.00;59.80;;;;;;5072638;28;20518;-60
2023/12/21 07:15:29;;;;;;;3.20;1.90;;;19.00;59.60;;;;;;5073319;28;20024;-60
2023/12/21 07:17:55;;;;;;;6.78;1.92;;;19.00;59.90;;;;;;5072773;28;20384;-60
2023/12/21 07:20:24;;;;;;;6.55;1.90;;;19.00;59.70;;;;;;5073438;28;20036;-60
2023/12/21 07:22:50;;;;;;;3.58;1.83;;;19.00;59.60;;;;;;5072564;28;20085;-60
2023/12/21 07:25:16;;;;;;;4.10;2.10;;;19.00;59.90;;;;;;5072138;28;20036;-59
2023/12/21 07:27:42;;;;;;;4.32;2.10;;;19.00;59.90;;;;;;5072607;28;20119;-60
2023/12/21 07:30:09;;;;;;;5.45;2.20;;;19.00;59.80;;;;;;5072405;28;20112;-60
2023/12/21 07:32:34;;;;;;;4.10;1.80;;;19.00;59.80;;;;;;5072258;28;20452;-60
2023/12/21 07:35:00;;;;;;;6.50;1.30;;;18.90;58.90;;;;;;5072498;28;20108;-59
2023/12/21 07:37:26;;;;;;;5.80;1.25;;;18.80;57.70;;;;;;5071470;28;20020;-60
2023/12/21 07:39:52;;;;;;;10.27;1.45;;;18.70;57.50;;;;;;5072388;28;20533;-61
2023/12/21 07:42:18;;;;;;;5.55;1.33;;;18.60;56.60;;;;;;5072162;28;20490;-61
2023/12/21 07:44:44;;;;;;;7.90;1.30;;;18.40;56.70;;;;;;5072103;28;20086;-59
2023/12/21 07:47:10;;;;;;;3.28;1.30;;;18.50;57.30;;;;;;5072167;28;20035;-58
2023/12/21 07:49:35;;;;;;;19.42;2.03;;;18.60;57.60;;;;;;5072350;28;20119;-57
2023/12/21 18:51:23;;;;;;;30.92;4.68;;;18.90;58.10;;;;;;5102281;27;20852;-60
2023/12/21 18:53:49;;;;;;;12.52;3.75;;;19.30;59.00;;;;;;5083907;28;20081;-57
2023/12/21 18:56:15;;;;;;;31.08;4.65;;;19.30;59.00;;;;;;5081981;28;20402;-62
2023/12/21 18:58:41;;;;;;;15.05;4.13;;;19.40;58.90;;;;;;5042292;22;20112;-62
2023/12/21 19:01:06;;;;;;;17.35;4.15;;;19.40;59.10;;;;;;4982188;28;20577;-56
2023/12/21 19:03:32;;;;;;;20.05;3.88;;;19.40;59.00;;;;;;5078989;28;20032;-63
2023/12/21 19:06:01;;;;;;;15.35;3.70;;;19.50;59.50;;;;;;5069986;28;20047;-64
2023/12/21 19:08:26;;;;;;;15.65;4.10;;;19.50;58.80;;;;;;5031555;28;20507;-65
2023/12/21 19:10:53;;;;;;;17.38;3.92;;;19.50;58.30;;;;;;4980326;28;20035;-66
2023/12/21 19:13:18;;;;;;;15.68;4.28;;;19.50;59.20;;;;;;4972766;28;20030;-65
2023/12/21 19:15:46;;;;;;;18.30;4.10;;;19.50;59.70;;;;;;4977231;28;20026;-65
2023/12/21 19:18:11;;;;;;;11.07;3.88;;;19.50;59.20;;;;;;4961536;28;20035;-62
2023/12/21 19:20:38;;;;;;;23.75;4.68;;;19.50;59.10;;;;;;4970274;28;21912;-57
2023/12/21 19:23:03;;;;;;;13.85;3.67;;;19.60;59.70;;;;;;4966059;28;20027;-63
2023/12/21 19:25:29;;;;;;;14.77;4.40;;;19.60;59.00;;;;;;4967573;28;20027;-60
2023/12/21 19:27:55;;;;;;;15.55;4.60;;;19.70;59.10;;;;;;4982668;28;20076;-62
2023/12/21 19:30:21;;;;;;;22.42;4.40;;;19.60;59.10;;;;;;4984310;28;20027;-61
2023/12/21 19:32:47;;;;;;;18.50;4.57;;;19.60;58.80;;;;;;4975680;28;20037;-62
2023/12/21 19:35:13;;;;;;;15.00;4.32;;;19.60;59.50;;;;;;4980179;28;20027;-62
2023/12/21 19:37:39;;;;;;;13.55;4.25;;;19.50;59.70;;;;;;4978851;28;20026;-63
2023/12/21 19:40:05;;;;;;;22.08;4.28;;;19.50;59.80;;;;;;4978862;28;20030;-64
2023/12/21 19:42:31;;;;;;;19.55;3.85;;;19.50;59.80;;;;;;4980027;28;20064;-55
2023/12/21 19:44:56;;;;;;;18.67;4.55;;;19.60;60.20;;;;;;4975877;28;20019;-64
2023/12/21 19:47:22;;;;;;;18.83;5.60;;;19.60;60.30;;;;;;4971407;28;20022;-62
2023/12/21 19:49:48;;;;;;;14.18;4.45;;;19.50;58.50;;;;;;4970428;28;20524;-62
2023/12/21 19:52:14;;;;;;;16.30;4.28;;;19.40;59.30;;;;;;4972993;28;20031;-62
2023/12/21 19:54:40;;;;;;;17.60;4.10;;;19.30;59.80;;;;;;4972420;28;20038;-62
2023/12/21 19:57:08;;;;;;;14.73;3.53;;;19.30;60.00;;;;;;4963225;28;20048;-62
2023/12/21 19:59:34;;;;;;;16.17;4.40;;;19.30;60.10;;;;;;4970825;28;20022;-62
2023/12/21 20:02:01;;;;;;;14.70;4.15;;;19.30;60.10;;;;;;4972245;28;20023;-62
2023/12/21 20:04:26;;;;;;;13.65;3.80;;;19.30;60.00;;;;;;4972265;28;20452;-62
2023/12/21 20:06:52;;;;;;;13.40;4.05;;;19.20;60.50;;;;;;4967972;28;20031;-62
2023/12/21 20:09:18;;;;;;;11.68;3.83;;;19.20;59.90;;;;;;4971082;28;20038;-62
2023/12/21 20:11:44;;;;;;;18.15;4.25;;;19.20;59.80;;;;;;4971870;28;20031;-62
2023/12/21 20:14:10;;;;;;;11.05;4.30;;;19.20;59.80;;;;;;4972055;28;20027;-62
2023/12/21 20:16:36;;;;;;;13.07;4.25;;;19.20;60.00;;;;;;4970655;28;20034;-62
2023/12/21 20:19:03;;;;;;;11.02;4.03;;;19.20;59.80;;;;;;4966463;28;20034;-62
2023/12/21 20:21:29;;;;;;;11.32;4.13;;;19.20;59.80;;;;;;4971518;28;20071;-62
2023/12/21 20:23:55;;;;;;;15.07;4.40;;;19.20;59.60;;;;;;4971827;28;20440;-62
2023/12/21 20:26:20;;;;;;;15.10;4.30;;;19.20;59.70;;;;;;4971940;28;20075;-61
2023/12/21 20:28:48;;;;;;;13.88;4.30;;;19.20;59.50;;;;;;4967531;28;20030;-62
2023/12/21 20:31:14;;;;;;;8.25;3.70;;;19.20;59.50;;;;;;4971567;28;20061;-62
2023/12/21 20:33:39;;;;;;;12.40;3.42;;;19.20;59.40;;;;;;4971911;28;20446;-62
2023/12/21 20:36:06;;;;;;;12.13;4.22;;;19.20;59.30;;;;;;4970692;28;20164;-62
2023/12/21 20:38:31;;;;;;;11.50;3.97;;;19.20;59.30;;;;;;4971470;28;20035;-62
2023/12/21 20:40:57;;;;;;;16.42;4.60;;;19.20;59.20;;;;;;4971340;28;20038;-62
2023/12/21 20:43:24;;;;;;;13.52;4.47;;;19.20;59.10;;;;;;4971629;28;20183;-62
2023/12/21 20:45:49;;;;;;;11.40;4.45;;;19.20;59.00;;;;;;4969239;28;20267;-62
2023/12/21 20:48:15;;;;;;;10.75;4.20;;;19.20;59.10;;;;;;4968722;28;20105;-62
2023/12/21 20:50:43;;;;;;;12.98;4.05;;;19.20;59.00;;;;;;4971170;28;20023;-62
2023/12/21 20:53:08;;;;;;;14.88;4.05;;;19.20;59.10;;;;;;4971407;28;20504;-62
2023/12/21 20:55:34;;;;;;;8.88;3.63;;;19.20;59.00;;;;;;4971436;28;20031;-62
2023/12/21 20:58:02;;;;;;;10.35;3.50;;;19.20;59.10;;;;;;4962503;28;20028;-62
2023/12/21 21:00:29;;;;;;;13.35;4.07;;;19.20;59.10;;;;;;4968694;28;20393;-62
2023/12/21 21:02:55;;;;;;;9.45;3.80;;;19.20;59.20;;;;;;4969266;28;20607;-62
2023/12/21 21:05:21;;;;;;;11.88;4.18;;;19.20;59.00;;;;;;4969009;28;20084;-62
2023/12/21 21:07:47;;;;;;;13.13;3.85;;;19.20;59.00;;;;;;4971100;28;20039;-62
2023/12/21 21:10:13;;;;;;;13.77;4.05;;;19.20;58.90;;;;;;4971105;28;20220;-62
2023/12/21 21:12:39;;;;;;;8.98;3.80;;;19.20;58.90;;;;;;4971287;28;20031;-62
2023/12/21 21:15:05;;;;;;;10.13;3.85;;;19.20;58.90;;;;;;4961714;28;20151;-62
2023/12/21 21:17:31;;;;;;;12.05;4.15;;;19.20;58.80;;;;;;4970839;28;20034;-62
2023/12/21 21:19:57;;;;;;;10.70;4.00;;;19.20;58.80;;;;;;4970745;28;20041;-62
2023/12/21 21:22:23;;;;;;;11.50;3.72;;;19.20;58.60;;;;;;4970972;28;20030;-62
2023/12/21 21:24:49;;;;;;;12.75;3.90;;;19.20;58.50;;;;;;4964959;28;20123;-62
2023/12/21 21:27:15;;;;;;;13.02;3.90;;;19.20;58.60;;;;;;4966535;28;20307;-62
2023/12/21 21:29:41;;;;;;;11.90;3.90;;;19.20;58.40;;;;;;4970635;28;20110;-62
2023/12/21 21:32:07;;;;;;;10.57;3.42;;;19.20;58.50;;;;;;4970937;28;20037;-62
2023/12/21 21:34:35;;;;;;;10.77;3.30;;;19.20;58.30;;;;;;4970876;28;20034;-62
2023/12/21 21:37:01;;;;;;;8.63;3.80;;;19.20;58.30;;;;;;4964164;28;20031;-62
2023/12/21 21:39:27;;;;;;;11.13;3.60;;;19.20;58.40;;;;;;4970264;28;20023;-62
2023/12/21 21:41:53;;;;;;;10.10;3.53;;;19.20;58.10;;;;;;4970803;28;20031;-62
2023/12/21 21:44:18;;;;;;;11.32;4.00;;;19.20;58.00;;;;;;4970693;28;20118;-62
2023/12/21 21:46:44;;;;;;;7.95;3.40;;;19.20;58.10;;;;;;4960649;28;20035;-62
2023/12/21 21:49:11;;;;;;;7.80;3.55;;;19.20;58.20;;;;;;4970473;28;20490;-62
2023/12/21 21:51:41;;;;;;;12.10;4.05;;;19.20;57.90;;;;;;4970225;28;20035;-62
2023/12/21 21:54:07;;;;;;;12.13;4.15;;;19.20;57.90;;;;;;4961746;28;20050;-63
2023/12/21 21:56:33;;;;;;;11.05;3.92;;;19.20;58.50;;;;;;4957676;28;20035;-65
2023/12/21 21:59:02;;;;;;;21.23;3.72;;;19.20;58.00;;;;;;4962229;28;20043;-62
2023/12/21 22:01:28;;;;;;;11.68;3.10;;;19.20;58.30;;;;;;4956926;28;20023;-63
2023/12/21 22:03:54;;;;;;;11.27;3.40;;;19.30;58.30;;;;;;4963257;28;20057;-63
2023/12/21 22:06:21;;;;;;;13.32;3.95;;;19.30;58.70;;;;;;4963086;28;20108;-63
2023/12/21 22:08:47;;;;;;;17.70;3.80;;;19.30;58.60;;;;;;4958224;28;20591;-63
2023/12/21 22:11:13;;;;;;;12.45;3.75;;;19.30;58.30;;;;;;4956508;28;20054;-63
2023/12/21 22:13:39;;;;;;;11.95;3.80;;;19.20;58.20;;;;;;4951395;28;20514;-63
2023/12/21 22:16:06;;;;;;;13.15;3.85;;;19.20;58.10;;;;;;4950863;28;20034;-63
2023/12/21 22:18:31;;;;;;;12.82;3.65;;;19.20;58.20;;;;;;4949967;28;20024;-63
2023/12/21 22:20:57;;;;;;;15.88;3.45;;;19.20;57.70;;;;;;4949824;28;20042;-63
2023/12/21 22:23:25;;;;;;;11.52;4.18;;;19.20;57.80;;;;;;4964870;28;20019;-63
2023/12/21 22:25:51;;;;;;;12.40;3.78;;;19.20;58.60;;;;;;4950294;28;20440;-63
2023/12/21 22:28:17;;;;;;;10.52;3.20;;;19.20;58.10;;;;;;4950755;28;20035;-63
2023/12/21 22:30:42;;;;;;;13.23;4.20;;;19.20;58.00;;;;;;4954401;28;20059;-63
2023/12/21 22:33:08;;;;;;;9.63;3.00;;;19.20;58.00;;;;;;4950689;28;20031;-63
2023/12/21 22:35:34;;;;;;;10.75;3.63;;;19.20;58.00;;;;;;4951911;28;20028;-63
2023/12/21 22:38:00;;;;;;;11.70;3.80;;;19.20;58.00;;;;;;4966508;28;20072;-63
2023/12/21 22:40:26;;;;;;;15.95;3.90;;;19.20;58.60;;;;;;4963128;28;20057;-63
2023/12/21 22:42:52;;;;;;;9.05;3.17;;;19.20;58.00;;;;;;4969797;28;20102;-63
2023/12/21 22:45:18;;;;;;;11.60;3.40;;;19.20;58.10;;;;;;4969924;28;20031;-63
2023/12/21 22:47:44;;;;;;;10.38;3.10;;;19.20;58.00;;;;;;4969807;28;20035;-63
2023/12/21 22:50:10;;;;;;;9.90;3.60;;;19.20;57.90;;;;;;4963465;28;20038;-63
2023/12/21 22:52:36;;;;;;;13.25;3.47;;;19.20;58.00;;;;;;4962426;28;20038;-63
2023/12/21 22:55:01;;;;;;;9.38;3.22;;;19.20;57.70;;;;;;4963821;28;20099;-63
2023/12/21 22:57:28;;;;;;;9.57;3.80;;;19.20;58.10;;;;;;4968239;28;20035;-63
2023/12/21 22:59:54;;;;;;;19.27;3.88;;;19.20;58.30;;;;;;4967454;28;20400;-63
2023/12/21 23:02:19;;;;;;;9.60;3.30;;;19.20;57.60;;;;;;4952654;28;20016;-63
2023/12/21 23:04:45;;;;;;;10.20;3.33;;;19.20;57.70;;;;;;4955087;28;20030;-63
2023/12/21 23:07:11;;;;;;;14.35;3.45;;;19.10;57.70;;;;;;4963155;28;20038;-63
2023/12/21 23:09:39;;;;;;;13.93;3.70;;;19.20;57.80;;;;;;4966153;28;20417;-63
2023/12/21 23:12:06;;;;;;;10.05;2.95;;;19.10;57.70;;;;;;4956284;28;20894;-63
2023/12/21 23:14:32;;;;;;;12.40;3.58;;;19.20;57.70;;;;;;4967940;28;20062;-63
2023/12/21 23:16:58;;;;;;;10.13;3.47;;;19.10;57.60;;;;;;4963124;28;20108;-63
2023/12/21 23:19:23;;;;;;;10.85;3.15;;;19.10;57.80;;;;;;4963667;28;20028;-63
2023/12/21 23:21:49;;;;;;;12.73;3.67;;;19.20;57.70;;;;;;4955206;28;20027;-63
2023/12/21 23:24:15;;;;;;;10.38;3.40;;;19.10;57.60;;;;;;4965164;28;20054;-63
2023/12/21 23:26:42;;;;;;;10.48;3.40;;;19.10;57.50;;;;;;4968149;28;20402;-63
2023/12/21 23:29:08;;;;;;;13.50;3.47;;;19.10;57.40;;;;;;4967638;28;20037;-63
2023/12/21 23:31:33;;;;;;;11.93;3.20;;;19.10;57.40;;;;;;4967839;28;20019;-63
2023/12/21 23:33:59;;;;;;;9.50;3.03;;;19.10;57.40;;;;;;4964968;28;20084;-63
2023/12/21 23:36:25;;;;;;;12.55;3.42;;;19.10;57.30;;;;;;4960133;28;20106;-63